Svitzer Hamilton — VJSH — position and weather

sailwx.info

Track history (hours):
 
Tides and Currents Weather Stations Pressure Air Temp Water Temp Dewpoint Dewpoint Depression Visibility Wind Speed Wind Dir Waves Ship Positions

Svitzer Hamilton

Last reported at 2018-May-22 17:41 UTC. Time now 2018-May-23 15:12 UTC.
Position S 32°54' E 151°46'.

Length 25 m; draft 5.4 m.

Type: Tug. MMSI: 503544000.

Date/timePositionNaut miles runAvg speedWind from/ knotsBaromVisibWave heightAir tempDewpointWater temp
2018-May-22 17:41S 32°54' E 151°46'1 3.4
2018-May-22 17:29S 32°55' E 151°46'2 3.8
2018-May-22 16:57S 32°54' E 151°49'2 2.2
2018-May-22 16:06S 32°55' E 151°47'1 5.3
2018-May-22 16:00S 32°55' E 151°46'1 0.6
2018-May-22 14:50S 32°54' E 151°46'1 0.1
2018-May-22 06:55S 32°55' E 151°46'0 0.0
2018-May-22 04:20S 32°55' E 151°46'0 0.0
2018-May-21 20:51S 32°55' E 151°46'2 3.7
2018-May-21 20:21S 32°55' E 151°48'2 0.8
2018-May-21 18:00S 32°54' E 151°46'1 0.5
2018-May-21 16:40S 32°53' E 151°46'0 1.9
2018-May-21 16:26S 32°54' E 151°46'2 3.9
2018-May-21 15:59S 32°55' E 151°48'2 0.2
2018-May-21 06:17S 32°54' E 151°46'1 5.1
2018-May-21 06:00S 32°55' E 151°47'3 4.8
2018-May-21 05:23S 32°55' E 151°50'4 0.3
2018-May-20 15:26S 32°54' E 151°46'2 4.4
2018-May-20 15:00S 32°55' E 151°47'0 0.1
2018-May-20 11:05S 32°55' E 151°47'1 1.6
2018-May-20 10:39S 32°55' E 151°46'0 0.0
2018-May-20 10:26S 32°55' E 151°46'1 0.1
2018-May-19 22:11S 32°55' E 151°47'1 3.9
2018-May-19 22:00S 32°55' E 151°46'1 0.9
2018-May-19 20:49S 32°54' E 151°46'2 0.8
2018-May-19 18:47S 32°55' E 151°46'1 0.2
2018-May-19 14:10S 32°55' E 151°47'2 4.2
2018-May-19 13:45S 32°54' E 151°46'2 1.2
2018-May-19 12:15S 32°55' E 151°47'1 3.3
2018-May-19 11:52S 32°54' E 151°46'0 0.1
2018-May-19 11:29S 32°54' E 151°46'1 0.7
2018-May-19 10:23S 32°53' E 151°46'0 0.0
2018-May-18 23:41S 32°53' E 151°46'2 1.8
2018-May-18 22:49S 32°55' E 151°46'0 1.6
2018-May-18 22:30S 32°55' E 151°47'0 0.2
2018-May-18 21:46S 32°55' E 151°47'2 0.6
2018-May-18 17:49S 32°53' E 151°46'0 0.1
2018-May-18 11:41S 32°54' E 151°46'2 0.2
2018-May-18 01:59S 32°55' E 151°48'2 1.4
2018-May-18 00:42S 32°54' E 151°46'1 1.6
2018-May-18 00:07S 32°53' E 151°46'1 3.1
2018-May-17 23:56S 32°54' E 151°46'1 1.0
2018-May-17 22:44S 32°55' E 151°46'1 3.9
2018-May-17 22:25S 32°54' E 151°46'0 0.4
2018-May-17 21:28S 32°54' E 151°46'1 2.3
2018-May-17 20:52S 32°55' E 151°46'0 0.0
2018-May-17 20:23S 32°55' E 151°46'0 0.0
2018-May-17 19:54S 32°55' E 151°46'0 0.0
2018-May-17 19:30S 32°55' E 151°46'0 0.0
2018-May-17 19:00S 32°55' E 151°46'0 0.0
2018-May-17 18:28S 32°55' E 151°46'1 0.2
2018-May-17 15:23S 32°55' E 151°47'2 1.2
2018-May-17 14:08S 32°54' E 151°46'0 1.4
2018-May-17 14:00S 32°54' E 151°46'2 0.8
2018-May-17 11:42S 32°55' E 151°47'2 3.2
2018-May-17 11:12S 32°54' E 151°46'1 3.5
2018-May-17 11:00S 32°53' E 151°46'2 0.2
2018-May-16 23:01S 32°55' E 151°47'0 3.9
2018-May-16 22:59S 32°55' E 151°47'2 3.3
2018-May-16 22:23S 32°53' E 151°46'1 0.6
2018-May-16 20:31S 32°54' E 151°46'1 0.0
2018-May-15 17:20S 32°55' E 151°47'1 3.4
2018-May-15 16:56S 32°54' E 151°46'1 0.1
2018-May-15 11:04S 32°53' E 151°46'1 3.6
2018-May-15 10:55S 32°54' E 151°46'1 0.1
2018-May-15 06:35S 32°53' E 151°46'1 3.0
2018-May-15 06:24S 32°54' E 151°46'0 0.0
2018-May-15 04:31S 32°54' E 151°46'0 3.3
2018-May-15 04:28S 32°54' E 151°46'2 0.3
2018-May-14 22:11S 32°55' E 151°47'2 3.4
2018-May-14 21:42S 32°54' E 151°46'0 0.0
2018-May-13 06:53S 32°53' E 151°46'2 0.8
2018-May-13 04:31S 32°55' E 151°47'  
Track history (hours):
 
Tides and Currents Weather Stations Pressure Air Temp Water Temp Dewpoint Dewpoint Depression Visibility Wind Speed Wind Dir Waves Ship Positions

Svitzer Hamilton

Last reported at 2018-May-22 17:41 UTC. Time now 2018-May-23 15:12 UTC.
Position S 32°54' E 151°46'.

Length 25 m; draft 5.4 m.

Type: Tug. MMSI: 503544000.

Date/timePositionNaut miles runAvg speedWind from/ knotsBaromVisibWave heightAir tempDewpointWater temp
2018-May-22 17:41S 32°54' E 151°46'1 3.4
2018-May-22 17:29S 32°55' E 151°46'2 3.8
2018-May-22 16:57S 32°54' E 151°49'2 2.2
2018-May-22 16:06S 32°55' E 151°47'1 5.3
2018-May-22 16:00S 32°55' E 151°46'1 0.6
2018-May-22 14:50S 32°54' E 151°46'1 0.1
2018-May-22 06:55S 32°55' E 151°46'0 0.0
2018-May-22 04:20S 32°55' E 151°46'0 0.0
2018-May-21 20:51S 32°55' E 151°46'2 3.7
2018-May-21 20:21S 32°55' E 151°48'2 0.8
2018-May-21 18:00S 32°54' E 151°46'1 0.5
2018-May-21 16:40S 32°53' E 151°46'0 1.9
2018-May-21 16:26S 32°54' E 151°46'2 3.9
2018-May-21 15:59S 32°55' E 151°48'2 0.2
2018-May-21 06:17S 32°54' E 151°46'1 5.1
2018-May-21 06:00S 32°55' E 151°47'3 4.8
2018-May-21 05:23S 32°55' E 151°50'4 0.3
2018-May-20 15:26S 32°54' E 151°46'2 4.4
2018-May-20 15:00S 32°55' E 151°47'0 0.1
2018-May-20 11:05S 32°55' E 151°47'1 1.6
2018-May-20 10:39S 32°55' E 151°46'0 0.0
2018-May-20 10:26S 32°55' E 151°46'1 0.1
2018-May-19 22:11S 32°55' E 151°47'1 3.9
2018-May-19 22:00S 32°55' E 151°46'1 0.9
2018-May-19 20:49S 32°54' E 151°46'2 0.8
2018-May-19 18:47S 32°55' E 151°46'1 0.2
2018-May-19 14:10S 32°55' E 151°47'2 4.2
2018-May-19 13:45S 32°54' E 151°46'2 1.2
2018-May-19 12:15S 32°55' E 151°47'1 3.3
2018-May-19 11:52S 32°54' E 151°46'0 0.1
2018-May-19 11:29S 32°54' E 151°46'1 0.7
2018-May-19 10:23S 32°53' E 151°46'0 0.0
2018-May-18 23:41S 32°53' E 151°46'2 1.8
2018-May-18 22:49S 32°55' E 151°46'0 1.6
2018-May-18 22:30S 32°55' E 151°47'0 0.2
2018-May-18 21:46S 32°55' E 151°47'2 0.6
2018-May-18 17:49S 32°53' E 151°46'0 0.1
2018-May-18 11:41S 32°54' E 151°46'2 0.2
2018-May-18 01:59S 32°55' E 151°48'2 1.4
2018-May-18 00:42S 32°54' E 151°46'1 1.6
2018-May-18 00:07S 32°53' E 151°46'1 3.1
2018-May-17 23:56S 32°54' E 151°46'1 1.0
2018-May-17 22:44S 32°55' E 151°46'1 3.9
2018-May-17 22:25S 32°54' E 151°46'0 0.4
2018-May-17 21:28S 32°54' E 151°46'1 2.3
2018-May-17 20:52S 32°55' E 151°46'0 0.0
2018-May-17 20:23S 32°55' E 151°46'0 0.0
2018-May-17 19:54S 32°55' E 151°46'0 0.0
2018-May-17 19:30S 32°55' E 151°46'0 0.0
2018-May-17 19:00S 32°55' E 151°46'0 0.0
2018-May-17 18:28S 32°55' E 151°46'1 0.2
2018-May-17 15:23S 32°55' E 151°47'2 1.2
2018-May-17 14:08S 32°54' E 151°46'0 1.4
2018-May-17 14:00S 32°54' E 151°46'2 0.8
2018-May-17 11:42S 32°55' E 151°47'2 3.2
2018-May-17 11:12S 32°54' E 151°46'1 3.5
2018-May-17 11:00S 32°53' E 151°46'2 0.2
2018-May-16 23:01S 32°55' E 151°47'0 3.9
2018-May-16 22:59S 32°55' E 151°47'2 3.3
2018-May-16 22:23S 32°53' E 151°46'1 0.6
2018-May-16 20:31S 32°54' E 151°46'1 0.0
2018-May-15 17:20S 32°55' E 151°47'1 3.4
2018-May-15 16:56S 32°54' E 151°46'1 0.1
2018-May-15 11:04S 32°53' E 151°46'1 3.6
2018-May-15 10:55S 32°54' E 151°46'1 0.1
2018-May-15 06:35S 32°53' E 151°46'1 3.0
2018-May-15 06:24S 32°54' E 151°46'0 0.0
2018-May-15 04:31S 32°54' E 151°46'0 3.3
2018-May-15 04:28S 32°54' E 151°46'2 0.3
2018-May-14 22:11S 32°55' E 151°47'2 3.4
2018-May-14 21:42S 32°54' E 151°46'0 0.0
2018-May-13 06:53S 32°53' E 151°46'2 0.8
2018-May-13 04:31S 32°55' E 151°47'  

Dump ship's entire track history